sensor_id;sensor_type;location;lat;lon;timestamp;pressure;altitude;pressure_sealevel;temperature;humidity
39823;BME280;25499;53.958;10.970;2023-05-23T05:22:57;101072.81;;;15.83;100.00
39823;BME280;25499;53.958;10.970;2023-05-23T05:25:25;101067.59;;;15.82;100.00
39823;BME280;25499;53.958;10.970;2023-05-23T05:27:52;101069.09;;;15.94;100.00
39823;BME280;25499;53.958;10.970;2023-05-23T05:30:19;101068.94;;;16.00;100.00
39823;BME280;25499;53.958;10.970;2023-05-23T05:32:46;101068.78;;;16.09;100.00
39823;BME280;25499;53.958;10.970;2023-05-23T05:35:12;101072.22;;;16.11;100.00
39823;BME280;25499;53.958;10.970;2023-05-23T05:37:39;101074.63;;;16.22;100.00
39823;BME280;25499;53.958;10.970;2023-05-23T05:40:08;101073.66;;;16.28;100.00
39823;BME280;25499;53.958;10.970;2023-05-23T05:42:34;101075.34;;;16.29;100.00
39823;BME280;25499;53.958;10.970;2023-05-23T05:45:02;101070.78;;;16.38;100.00
39823;BME280;25499;53.958;10.970;2023-05-23T05:47:29;101078.66;;;16.38;100.00
39823;BME280;25499;53.958;10.970;2023-05-23T05:49:57;101081.97;;;16.47;100.00
39823;BME280;25499;53.958;10.970;2023-05-23T05:52:23;101076.44;;;16.59;100.00
39823;BME280;25499;53.958;10.970;2023-05-23T05:54:50;101086.63;;;16.73;100.00
39823;BME280;25499;53.958;10.970;2023-05-23T05:57:18;101083.91;;;16.77;100.00
39823;BME280;25499;53.958;10.970;2023-05-23T05:59:45;101087.34;;;16.79;100.00
39823;BME280;25499;53.958;10.970;2023-05-23T06:02:12;101078.44;;;16.87;100.00
39823;BME280;25499;53.958;10.970;2023-05-23T06:04:39;101085.50;;;16.85;100.00
39823;BME280;25499;53.958;10.970;2023-05-23T06:07:06;101082.25;;;16.73;100.00
39823;BME280;25499;53.958;10.970;2023-05-23T06:09:32;101086.66;;;16.71;100.00
39823;BME280;25499;53.958;10.970;2023-05-23T06:12:00;101079.72;;;16.69;100.00
39823;BME280;25499;53.958;10.970;2023-05-23T06:14:28;101088.72;;;16.58;100.00
39823;BME280;25499;53.958;10.970;2023-05-23T06:16:55;101089.81;;;16.50;100.00
39823;BME280;25499;53.958;10.970;2023-05-23T06:19:22;101093.59;;;16.36;100.00
39823;BME280;25499;53.958;10.970;2023-05-23T06:21:49;101102.22;;;16.43;100.00
39823;BME280;25499;53.958;10.970;2023-05-23T06:24:16;101102.28;;;16.40;100.00
39823;BME280;25499;53.958;10.970;2023-05-23T06:26:42;101105.03;;;16.34;100.00
39823;BME280;25499;53.958;10.970;2023-05-23T06:29:09;101107.69;;;16.32;100.00
39823;BME280;25499;53.958;10.970;2023-05-23T06:31:39;101101.69;;;16.26;100.00
39823;BME280;25499;53.958;10.970;2023-05-23T06:34:05;101101.84;;;16.19;100.00
39823;BME280;25499;53.958;10.970;2023-05-23T06:36:32;101100.00;;;16.23;100.00
39823;BME280;25499;53.958;10.970;2023-05-23T06:38:59;101094.84;;;16.18;100.00
39823;BME280;25499;53.958;10.970;2023-05-23T06:41:26;101104.56;;;16.13;100.00
39823;BME280;25499;53.958;10.970;2023-05-23T06:43:53;101099.22;;;16.19;100.00
39823;BME280;25499;53.958;10.970;2023-05-23T06:46:20;101095.66;;;16.20;100.00
39823;BME280;25499;53.958;10.970;2023-05-23T06:48:48;101100.88;;;16.23;100.00
39823;BME280;25499;53.958;10.970;2023-05-23T06:51:15;101101.78;;;16.22;100.00
39823;BME280;25499;53.958;10.970;2023-05-23T06:53:41;101114.09;;;16.19;100.00
39823;BME280;25499;53.958;10.970;2023-05-23T06:56:08;101121.09;;;16.20;100.00
39823;BME280;25499;53.958;10.970;2023-05-23T06:58:35;101128.00;;;16.24;100.00
39823;BME280;25499;53.958;10.970;2023-05-23T07:01:01;101137.41;;;16.34;100.00
39823;BME280;25499;53.958;10.970;2023-05-23T07:03:29;101145.16;;;16.42;100.00
39823;BME280;25499;53.958;10.970;2023-05-23T07:05:58;101146.59;;;16.57;100.00
39823;BME280;25499;53.958;10.970;2023-05-23T07:08:25;101149.81;;;16.68;100.00
39823;BME280;25499;53.958;10.970;2023-05-23T07:10:51;101156.06;;;16.64;100.00
39823;BME280;25499;53.958;10.970;2023-05-23T07:13:18;101158.88;;;16.56;100.00
39823;BME280;25499;53.958;10.970;2023-05-23T07:15:45;101153.84;;;16.46;100.00
39823;BME280;25499;53.958;10.970;2023-05-23T07:18:12;101151.97;;;16.51;100.00
39823;BME280;25499;53.958;10.970;2023-05-23T07:20:38;101141.81;;;16.34;100.00
39823;BME280;25499;53.958;10.970;2023-05-23T07:23:07;101141.09;;;16.26;100.00
39823;BME280;25499;53.958;10.970;2023-05-23T07:25:34;101141.31;;;16.15;100.00
39823;BME280;25499;53.958;10.970;2023-05-23T07:28:00;101139.78;;;16.04;100.00
39823;BME280;25499;53.958;10.970;2023-05-23T07:30:27;101147.56;;;16.11;100.00
39823;BME280;25499;53.958;10.970;2023-05-23T07:32:54;101137.16;;;16.04;100.00
39823;BME280;25499;53.958;10.970;2023-05-23T07:35:21;101145.00;;;16.06;100.00
39823;BME280;25499;53.958;10.970;2023-05-23T07:37:50;101148.44;;;16.10;100.00
39823;BME280;25499;53.958;10.970;2023-05-23T07:40:19;101155.50;;;16.06;100.00
39823;BME280;25499;53.958;10.970;2023-05-23T07:42:45;101156.53;;;15.99;100.00
39823;BME280;25499;53.958;10.970;2023-05-23T07:45:13;101146.25;;;15.85;100.00
39823;BME280;25499;53.958;10.970;2023-05-23T07:47:40;101146.50;;;15.70;100.00
39823;BME280;25499;53.958;10.970;2023-05-23T07:50:08;101152.56;;;15.73;100.00
39823;BME280;25499;53.958;10.970;2023-05-23T07:52:34;101150.88;;;15.72;100.00
39823;BME280;25499;53.958;10.970;2023-05-23T07:55:01;101160.38;;;15.79;100.00
39823;BME280;25499;53.958;10.970;2023-05-23T07:57:29;101160.25;;;15.87;100.00
39823;BME280;25499;53.958;10.970;2023-05-23T07:59:56;101153.47;;;15.75;100.00
39823;BME280;25499;53.958;10.970;2023-05-23T08:02:23;101164.00;;;15.71;100.00
39823;BME280;25499;53.958;10.970;2023-05-23T08:04:50;101153.72;;;15.60;100.00
39823;BME280;25499;53.958;10.970;2023-05-23T08:07:17;101163.44;;;15.53;100.00
39823;BME280;25499;53.958;10.970;2023-05-23T08:09:46;101162.59;;;15.51;100.00
39823;BME280;25499;53.958;10.970;2023-05-23T08:12:13;101171.50;;;15.41;100.00
39823;BME280;25499;53.958;10.970;2023-05-23T08:14:41;101161.19;;;15.32;100.00
39823;BME280;25499;53.958;10.970;2023-05-23T08:17:07;101161.25;;;15.25;100.00
39823;BME280;25499;53.958;10.970;2023-05-23T08:19:34;101160.41;;;15.25;100.00
39823;BME280;25499;53.958;10.970;2023-05-23T08:22:01;101169.91;;;15.32;100.00
39823;BME280;25499;53.958;10.970;2023-05-23T08:24:29;101164.84;;;15.21;100.00
39823;BME280;25499;53.958;10.970;2023-05-23T08:26:55;101173.22;;;15.43;100.00
39823;BME280;25499;53.958;10.970;2023-05-23T08:29:23;101173.94;;;15.53;100.00
39823;BME280;25499;53.958;10.970;2023-05-23T08:31:51;101170.41;;;15.54;100.00
39823;BME280;25499;53.958;10.970;2023-05-23T08:34:17;101170.44;;;15.51;100.00
39823;BME280;25499;53.958;10.970;2023-05-23T08:36:44;101180.81;;;15.60;100.00
39823;BME280;25499;53.958;10.970;2023-05-23T08:39:11;101179.03;;;15.62;100.00
39823;BME280;25499;53.958;10.970;2023-05-23T08:41:38;101183.16;;;15.79;100.00
39823;BME280;25499;53.958;10.970;2023-05-23T08:44:04;101186.03;;;15.63;100.00
39823;BME280;25499;53.958;10.970;2023-05-23T08:46:32;101186.13;;;15.56;100.00
39823;BME280;25499;53.958;10.970;2023-05-23T08:49:01;101192.16;;;15.62;100.00
39823;BME280;25499;53.958;10.970;2023-05-23T08:51:28;101197.34;;;15.65;100.00
39823;BME280;25499;53.958;10.970;2023-05-23T08:53:56;101213.06;;;15.67;100.00
39823;BME280;25499;53.958;10.970;2023-05-23T08:56:24;101213.88;;;15.72;100.00
39823;BME280;25499;53.958;10.970;2023-05-23T08:58:53;101211.03;;;15.86;100.00
39823;BME280;25499;53.958;10.970;2023-05-23T09:01:21;101219.59;;;15.97;100.00
39823;BME280;25499;53.958;10.970;2023-05-23T09:03:50;101220.16;;;16.13;100.00
39823;BME280;25499;53.958;10.970;2023-05-23T09:06:19;101225.69;;;15.99;100.00
39823;BME280;25499;53.958;10.970;2023-05-23T09:08:46;101215.22;;;15.96;100.00
39823;BME280;25499;53.958;10.970;2023-05-23T09:11:13;101223.03;;;16.01;100.00
39823;BME280;25499;53.958;10.970;2023-05-23T09:13:41;101222.16;;;16.00;100.00
39823;BME280;25499;53.958;10.970;2023-05-23T09:16:09;101227.28;;;16.07;100.00
39823;BME280;25499;53.958;10.970;2023-05-23T09:18:38;101233.81;;;16.32;100.00
39823;BME280;25499;53.958;10.970;2023-05-23T09:21:05;101239.72;;;16.45;100.00
39823;BME280;25499;53.958;10.970;2023-05-23T09:23:35;101240.50;;;16.49;100.00
39823;BME280;25499;53.958;10.970;2023-05-23T09:26:02;101234.69;;;16.33;100.00
39823;BME280;25499;53.958;10.970;2023-05-23T09:28:29;101236.56;;;16.28;100.00
39823;BME280;25499;53.958;10.970;2023-05-23T09:30:59;101244.75;;;16.11;100.00
39823;BME280;25499;53.958;10.970;2023-05-23T09:33:34;101242.97;;;16.11;100.00
39823;BME280;25499;53.958;10.970;2023-05-23T09:36:03;101257.78;;;16.15;100.00
39823;BME280;25499;53.958;10.970;2023-05-23T09:38:29;101252.78;;;16.01;100.00
39823;BME280;25499;53.958;10.970;2023-05-23T09:40:59;101245.66;;;16.08;100.00
39823;BME280;25499;53.958;10.970;2023-05-23T09:43:27;101256.38;;;15.96;100.00
39823;BME280;25499;53.958;10.970;2023-05-23T09:45:54;101254.00;;;15.82;100.00
39823;BME280;25499;53.958;10.970;2023-05-23T09:48:27;101258.56;;;15.67;100.00
39823;BME280;25499;53.958;10.970;2023-05-23T09:50:56;101261.47;;;15.49;100.00
39823;BME280;25499;53.958;10.970;2023-05-23T09:53:23;101251.31;;;15.27;100.00
39823;BME280;25499;53.958;10.970;2023-05-23T09:55:50;101249.50;;;15.31;100.00
39823;BME280;25499;53.958;10.970;2023-05-23T09:58:19;101261.84;;;15.26;100.00
39823;BME280;25499;53.958;10.970;2023-05-23T10:00:49;101262.88;;;15.14;100.00
39823;BME280;25499;53.958;10.970;2023-05-23T10:03:18;101272.50;;;15.12;100.00
39823;BME280;25499;53.958;10.970;2023-05-23T10:05:49;101270.97;;;14.97;100.00
39823;BME280;25499;53.958;10.970;2023-05-23T10:08:18;101277.22;;;14.87;100.00
39823;BME280;25499;53.958;10.970;2023-05-23T10:14:01;101291.25;;;14.80;100.00
39823;BME280;25499;53.958;10.970;2023-05-23T10:16:35;101293.88;;;14.80;100.00
39823;BME280;25499;53.958;10.970;2023-05-23T10:19:06;101296.63;;;14.70;100.00
39823;BME280;25499;53.958;10.970;2023-05-23T10:21:35;101301.00;;;14.70;100.00
39823;BME280;25499;53.958;10.970;2023-05-23T10:24:07;101306.19;;;14.74;100.00
39823;BME280;25499;53.958;10.970;2023-05-23T10:26:34;101303.50;;;14.81;100.00
39823;BME280;25499;53.958;10.970;2023-05-23T10:29:02;101304.47;;;14.72;100.00
39823;BME280;25499;53.958;10.970;2023-05-23T10:31:30;101305.34;;;14.72;100.00
39823;BME280;25499;53.958;10.970;2023-05-23T10:34:01;101301.22;;;14.45;100.00
39823;BME280;25499;53.958;10.970;2023-05-23T10:36:36;101304.75;;;14.43;100.00
39823;BME280;25499;53.958;10.970;2023-05-23T10:39:08;101304.06;;;14.22;100.00
39823;BME280;25499;53.958;10.970;2023-05-23T10:41:43;101312.94;;;14.10;100.00
39823;BME280;25499;53.958;10.970;2023-05-23T10:44:18;101318.09;;;14.13;100.00
39823;BME280;25499;53.958;10.970;2023-05-23T10:46:52;101319.06;;;14.03;100.00
39823;BME280;25499;53.958;10.970;2023-05-23T10:49:19;101328.66;;;14.06;100.00
39823;BME280;25499;53.958;10.970;2023-05-23T10:51:48;101333.91;;;14.03;100.00
39823;BME280;25499;53.958;10.970;2023-05-23T10:54:17;101340.16;;;13.86;100.00
39823;BME280;25499;53.958;10.970;2023-05-23T10:56:45;101343.69;;;13.80;100.00
39823;BME280;25499;53.958;10.970;2023-05-23T10:59:26;101349.84;;;13.76;100.00
39823;BME280;25499;53.958;10.970;2023-05-23T11:01:54;101348.09;;;13.71;100.00
39823;BME280;25499;53.958;10.970;2023-05-23T11:04:25;101353.34;;;13.69;100.00
39823;BME280;25499;53.958;10.970;2023-05-23T11:06:52;101348.19;;;13.58;100.00
39823;BME280;25499;53.958;10.970;2023-05-23T11:09:19;101350.88;;;13.45;100.00
39823;BME280;25499;53.958;10.970;2023-05-23T11:12:00;101358.72;;;13.48;100.00
39823;BME280;25499;53.958;10.970;2023-05-23T11:14:52;101365.69;;;13.46;100.00
39823;BME280;25499;53.958;10.970;2023-05-23T11:17:29;101362.13;;;13.59;100.00
39823;BME280;25499;53.958;10.970;2023-05-23T11:19:59;101363.03;;;13.56;100.00
39823;BME280;25499;53.958;10.970;2023-05-23T11:22:30;101374.38;;;13.49;100.00
39823;BME280;25499;53.958;10.970;2023-05-23T11:24:58;101370.91;;;13.49;100.00
39823;BME280;25499;53.958;10.970;2023-05-23T11:27:26;101370.13;;;13.37;100.00
39823;BME280;25499;53.958;10.970;2023-05-23T11:30:00;101377.09;;;13.24;100.00
39823;BME280;25499;53.958;10.970;2023-05-23T11:32:27;101380.69;;;13.02;100.00
39823;BME280;25499;53.958;10.970;2023-05-23T11:34:59;101390.22;;;13.07;100.00
39823;BME280;25499;53.958;10.970;2023-05-23T11:37:26;101391.94;;;13.19;100.00
39823;BME280;25499;53.958;10.970;2023-05-23T11:39:53;101388.47;;;13.16;100.00
39823;BME280;25499;53.958;10.970;2023-05-23T11:42:21;101403.31;;;13.07;100.00
39823;BME280;25499;53.958;10.970;2023-05-23T11:44:48;101394.56;;;13.10;100.00
39823;BME280;25499;53.958;10.970;2023-05-23T11:47:17;101398.97;;;13.02;100.00
39823;BME280;25499;53.958;10.970;2023-05-23T11:49:45;101399.84;;;13.05;100.00
39823;BME280;25499;53.958;10.970;2023-05-23T11:52:12;101404.19;;;13.03;100.00
39823;BME280;25499;53.958;10.970;2023-05-23T11:54:40;101410.34;;;12.75;100.00
39823;BME280;25499;53.958;10.970;2023-05-23T11:57:07;101405.16;;;12.56;100.00
39823;BME280;25499;53.958;10.970;2023-05-23T11:59:34;101394.69;;;12.53;100.00
39823;BME280;25499;53.958;10.970;2023-05-23T12:02:01;101392.09;;;12.48;100.00
39823;BME280;25499;53.958;10.970;2023-05-23T12:04:29;101393.81;;;12.54;100.00
39823;BME280;25499;53.958;10.970;2023-05-23T12:06:56;101398.19;;;12.58;100.00
39823;BME280;25499;53.958;10.970;2023-05-23T12:09:22;101406.00;;;12.66;100.00
39823;BME280;25499;53.958;10.970;2023-05-23T12:11:50;101412.06;;;12.76;100.00
39823;BME280;25499;53.958;10.970;2023-05-23T12:14:17;101413.81;;;12.91;100.00
39823;BME280;25499;53.958;10.970;2023-05-23T12:16:44;101413.75;;;13.04;100.00
39823;BME280;25499;53.958;10.970;2023-05-23T12:19:12;101417.28;;;12.97;100.00
39823;BME280;25499;53.958;10.970;2023-05-23T12:21:42;101425.97;;;13.02;100.00
39823;BME280;25499;53.958;10.970;2023-05-23T12:24:17;101422.50;;;12.97;100.00
39823;BME280;25499;53.958;10.970;2023-05-23T12:26:48;101428.59;;;12.99;100.00
39823;BME280;25499;53.958;10.970;2023-05-23T12:29:18;101423.38;;;12.96;100.00
39823;BME280;25499;53.958;10.970;2023-05-23T12:31:47;101431.19;;;13.05;100.00
39823;BME280;25499;53.958;10.970;2023-05-23T12:34:14;101438.09;;;13.30;100.00
39823;BME280;25499;53.958;10.970;2023-05-23T12:36:42;101442.31;;;13.69;100.00
39823;BME280;25499;53.958;10.970;2023-05-23T12:39:10;101445.53;;;14.21;100.00
39823;BME280;25499;53.958;10.970;2023-05-23T12:41:40;101441.13;;;14.26;100.00
39823;BME280;25499;53.958;10.970;2023-05-23T12:44:07;101439.13;;;14.55;100.00
39823;BME280;25499;53.958;10.970;2023-05-23T12:46:34;101435.53;;;14.70;100.00
39823;BME280;25499;53.958;10.970;2023-05-23T12:49:01;101428.56;;;14.68;100.00
39823;BME280;25499;53.958;10.970;2023-05-23T12:51:29;101432.19;;;14.53;100.00
39823;BME280;25499;53.958;10.970;2023-05-23T12:53:57;101433.97;;;14.48;100.00
39823;BME280;25499;53.958;10.970;2023-05-23T12:56:24;101444.38;;;14.54;100.00
39823;BME280;25499;53.958;10.970;2023-05-23T12:58:51;101444.94;;;14.93;100.00
39823;BME280;25499;53.958;10.970;2023-05-23T13:01:19;101450.63;;;15.32;100.00
39823;BME280;25499;53.958;10.970;2023-05-23T13:03:46;101438.22;;;15.46;100.00
39823;BME280;25499;53.958;10.970;2023-05-23T13:06:13;101436.06;;;15.05;100.00
39823;BME280;25499;53.958;10.970;2023-05-23T13:08:39;101427.66;;;14.73;100.00
39823;BME280;25499;53.958;10.970;2023-05-23T13:11:08;101446.00;;;14.72;100.00
39823;BME280;25499;53.958;10.970;2023-05-23T13:13:35;101447.34;;;15.13;100.00
39823;BME280;25499;53.958;10.970;2023-05-23T13:16:02;101442.00;;;15.22;100.00
39823;BME280;25499;53.958;10.970;2023-05-23T13:18:29;101411.53;;;15.10;100.00
39823;BME280;25499;53.958;10.970;2023-05-23T13:20:56;101408.31;;;14.85;100.00
39823;BME280;25499;53.958;10.970;2023-05-23T13:23:23;101416.03;;;15.01;100.00
39823;BME280;25499;53.958;10.970;2023-05-23T13:25:51;101420.97;;;15.25;100.00
39823;BME280;25499;53.958;10.970;2023-05-23T13:28:19;101424.38;;;15.32;99.39
39823;BME280;25499;53.958;10.970;2023-05-23T13:30:46;101412.63;;;15.64;99.35
39823;BME280;25499;53.958;10.970;2023-05-23T13:33:13;101420.69;;;15.50;97.67
39823;BME280;25499;53.958;10.970;2023-05-23T13:35:40;101429.28;;;15.61;98.52
39823;BME280;25499;53.958;10.970;2023-05-23T13:38:07;101426.72;;;15.58;95.44
39823;BME280;25499;53.958;10.970;2023-05-23T13:40:33;101423.66;;;15.21;94.95
39823;BME280;25499;53.958;10.970;2023-05-23T13:43:01;101429.00;;;15.11;93.67
39823;BME280;25499;53.958;10.970;2023-05-23T13:45:29;101427.50;;;14.87;94.06
39823;BME280;25499;53.958;10.970;2023-05-23T13:47:58;101414.53;;;14.75;91.07
39823;BME280;25499;53.958;10.970;2023-05-23T13:50:25;101421.41;;;14.88;89.71
39823;BME280;25499;53.958;10.970;2023-05-23T13:52:52;101416.03;;;15.01;88.87
39823;BME280;25499;53.958;10.970;2023-05-23T13:55:19;101419.31;;;15.18;88.80
39823;BME280;25499;53.958;10.970;2023-05-23T13:57:46;101413.09;;;15.25;86.66
39823;BME280;25499;53.958;10.970;2023-05-23T14:00:13;101424.09;;;15.58;86.50
39823;BME280;25499;53.958;10.970;2023-05-23T14:02:42;101415.22;;;15.65;85.11
39823;BME280;25499;53.958;10.970;2023-05-23T14:05:09;101402.91;;;15.71;82.92
39823;BME280;25499;53.958;10.970;2023-05-23T14:07:36;101414.47;;;15.57;83.72
39823;BME280;25499;53.958;10.970;2023-05-23T14:10:04;101419.84;;;15.46;84.25
39823;BME280;25499;53.958;10.970;2023-05-23T14:12:31;101433.03;;;15.42;85.10
39823;BME280;25499;53.958;10.970;2023-05-23T14:14:58;101415.63;;;15.35;84.52
39823;BME280;25499;53.958;10.970;2023-05-23T14:17:25;101427.69;;;15.50;84.12
39823;BME280;25499;53.958;10.970;2023-05-23T14:19:53;101426.84;;;15.46;83.34
39823;BME280;25499;53.958;10.970;2023-05-23T14:22:22;101437.44;;;15.40;85.05
39823;BME280;25499;53.958;10.970;2023-05-23T14:24:49;101424.25;;;15.44;83.64
39823;BME280;25499;53.958;10.970;2023-05-23T14:27:16;101435.44;;;15.59;84.83
39823;BME280;25499;53.958;10.970;2023-05-23T14:29:43;101434.44;;;15.67;84.68
39823;BME280;25499;53.958;10.970;2023-05-23T14:32:11;101418.03;;;15.52;82.17
39823;BME280;25499;53.958;10.970;2023-05-23T14:34:38;101422.81;;;15.17;82.69
39823;BME280;25499;53.958;10.970;2023-05-23T14:37:06;101434.16;;;15.22;83.69
39823;BME280;25499;53.958;10.970;2023-05-23T14:39:33;101432.59;;;15.04;84.06
39823;BME280;25499;53.958;10.970;2023-05-23T14:42:00;101438.72;;;15.02;85.44
39823;BME280;25499;53.958;10.970;2023-05-23T14:44:27;101433.56;;;14.92;84.38
39823;BME280;25499;53.958;10.970;2023-05-23T14:46:54;101447.66;;;14.82;86.69
39823;BME280;25499;53.958;10.970;2023-05-23T14:49:21;101440.81;;;14.66;85.76
39823;BME280;25499;53.958;10.970;2023-05-23T14:51:48;101462.72;;;14.59;87.10
39823;BME280;25499;53.958;10.970;2023-05-23T14:54:16;101459.25;;;14.53;87.26
39823;BME280;25499;53.958;10.970;2023-05-23T14:56:43;101459.13;;;14.70;87.74
39823;BME280;25499;53.958;10.970;2023-05-23T14:59:10;101443.31;;;14.78;85.20
39823;BME280;25499;53.958;10.970;2023-05-23T15:01:36;101434.69;;;14.70;83.81
39823;BME280;25499;53.958;10.970;2023-05-23T15:04:03;101429.50;;;14.56;82.35
39823;BME280;25499;53.958;10.970;2023-05-23T15:06:33;101432.06;;;14.70;82.80
39823;BME280;25499;53.958;10.970;2023-05-23T15:09:00;101424.97;;;14.78;81.82
39823;BME280;25499;53.958;10.970;2023-05-23T15:11:28;101422.31;;;14.83;80.98
39823;BME280;25499;53.958;10.970;2023-05-23T15:13:56;101436.19;;;14.92;80.83
39823;BME280;25499;53.958;10.970;2023-05-23T15:16:24;101430.00;;;15.00;80.56
39823;BME280;25499;53.958;10.970;2023-05-23T15:18:50;101423.91;;;14.99;79.83
39823;BME280;25499;53.958;10.970;2023-05-23T15:21:17;101412.56;;;14.96;79.36
39823;BME280;25499;53.958;10.970;2023-05-23T15:23:44;101427.38;;;15.01;80.39
39823;BME280;25499;53.958;10.970;2023-05-23T15:26:11;101427.50;;;14.87;79.09
39823;BME280;25499;53.958;10.970;2023-05-23T15:28:39;101407.56;;;14.71;78.38
39823;BME280;25499;53.958;10.970;2023-05-23T15:31:06;101438.31;;;14.49;80.39
39823;BME280;25499;53.958;10.970;2023-05-23T15:33:32;101446.16;;;14.52;80.61
39823;BME280;25499;53.958;10.970;2023-05-23T15:35:59;101459.28;;;14.47;82.65
39823;BME280;25499;53.958;10.970;2023-05-23T15:38:26;101464.50;;;14.52;82.71
39823;BME280;25499;53.958;10.970;2023-05-23T15:40:53;101460.94;;;14.56;82.70
39823;BME280;25499;53.958;10.970;2023-05-23T15:43:21;101446.97;;;14.62;81.89
39823;BME280;25499;53.958;10.970;2023-05-23T15:45:51;101423.31;;;14.69;78.31
39823;BME280;25499;53.958;10.970;2023-05-23T15:48:18;101412.88;;;14.66;76.89
39823;BME280;25499;53.958;10.970;2023-05-23T15:50:44;101416.25;;;14.76;77.15
39823;BME280;25499;53.958;10.970;2023-05-23T15:53:13;101403.13;;;14.79;75.72
39823;BME280;25499;53.958;10.970;2023-05-23T15:55:40;101412.06;;;14.55;75.36
39823;BME280;25499;53.958;10.970;2023-05-23T15:58:07;101431.28;;;14.51;76.97
39823;BME280;25499;53.958;10.970;2023-05-23T16:00:34;101435.69;;;14.50;78.09
39823;BME280;25499;53.958;10.970;2023-05-23T16:03:02;101442.81;;;14.31;78.58
39823;BME280;25499;53.958;10.970;2023-05-23T16:05:29;101434.25;;;14.09;77.68
39823;BME280;25499;53.958;10.970;2023-05-23T16:07:55;101419.50;;;13.96;76.85
39823;BME280;25499;53.958;10.970;2023-05-23T16:10:22;101422.19;;;13.87;76.42
39823;BME280;25499;53.958;10.970;2023-05-23T16:12:49;101400.41;;;13.77;75.33
39823;BME280;25499;53.958;10.970;2023-05-23T16:15:16;101423.06;;;13.78;76.11
39823;BME280;25499;53.958;10.970;2023-05-23T16:17:43;101435.31;;;13.73;76.79
39823;BME280;25499;53.958;10.970;2023-05-23T16:20:12;101421.38;;;13.69;76.37
39823;BME280;25499;53.958;10.970;2023-05-23T16:22:39;101419.69;;;13.59;75.67
39823;BME280;25499;53.958;10.970;2023-05-23T16:25:07;101433.69;;;13.50;76.41
39823;BME280;25499;53.958;10.970;2023-05-23T16:27:34;101454.63;;;13.47;77.69
39823;BME280;25499;53.958;10.970;2023-05-23T16:30:01;101445.94;;;13.40;77.45
39823;BME280;25499;53.958;10.970;2023-05-23T16:32:28;101436.38;;;13.32;76.82
39823;BME280;25499;53.958;10.970;2023-05-23T16:34:55;101452.94;;;13.31;77.94
39823;BME280;25499;53.958;10.970;2023-05-23T16:37:23;101475.59;;;13.38;79.45
39823;BME280;25499;53.958;10.970;2023-05-23T16:39:50;101465.94;;;13.51;79.65
39823;BME280;25499;53.958;10.970;2023-05-23T16:42:17;101458.09;;;13.54;78.13
39823;BME280;25499;53.958;10.970;2023-05-23T16:44:45;101451.97;;;13.58;77.61
39823;BME280;25499;53.958;10.970;2023-05-23T16:47:12;101443.22;;;13.65;76.41
39823;BME280;25499;53.958;10.970;2023-05-23T16:49:38;101425.81;;;13.56;75.12
39823;BME280;25499;53.958;10.970;2023-05-23T16:52:05;101447.59;;;13.65;75.72
39823;BME280;25499;53.958;10.970;2023-05-23T16:54:33;101447.63;;;13.51;76.36
39823;BME280;25499;53.958;10.970;2023-05-23T16:57:00;101445.06;;;13.48;76.67
39823;BME280;25499;53.958;10.970;2023-05-23T16:59:28;101460.78;;;13.35;77.95
39823;BME280;25499;53.958;10.970;2023-05-23T17:01:56;101485.22;;;13.20;79.67
39823;BME280;25499;53.958;10.970;2023-05-23T17:04:23;101482.59;;;13.17;80.04
39823;BME280;25499;53.958;10.970;2023-05-23T17:06:50;101466.94;;;13.02;79.54
39823;BME280;25499;53.958;10.970;2023-05-23T17:09:17;101486.13;;;12.88;80.71
39823;BME280;25499;53.958;10.970;2023-05-23T17:11:47;101482.66;;;12.86;81.23
39823;BME280;25499;53.958;10.970;2023-05-23T17:14:14;101475.66;;;12.78;79.74
39823;BME280;25499;53.958;10.970;2023-05-23T17:16:40;101460.88;;;12.61;79.47
39823;BME280;25499;53.958;10.970;2023-05-23T17:19:07;101469.56;;;12.54;79.37
39823;BME280;25499;53.958;10.970;2023-05-23T17:21:34;101480.03;;;12.51;80.12
39823;BME280;25499;53.958;10.970;2023-05-23T17:24:02;101481.75;;;12.52;80.71
39823;BME280;25499;53.958;10.970;2023-05-23T17:26:29;101483.50;;;12.50;80.19
39823;BME280;25499;53.958;10.970;2023-05-23T17:28:57;101474.78;;;12.46;80.22
39823;BME280;25499;53.958;10.970;2023-05-23T17:31:24;101482.63;;;12.45;79.80
39823;BME280;25499;53.958;10.970;2023-05-23T17:33:51;101478.28;;;12.39;79.70
39823;BME280;25499;53.958;10.970;2023-05-23T17:36:18;101468.69;;;12.30;79.00
39823;BME280;25499;53.958;10.970;2023-05-23T17:38:46;101487.84;;;12.34;79.64
39823;BME280;25499;53.958;10.970;2023-05-23T17:41:13;101494.81;;;12.40;79.93
39823;BME280;25499;53.958;10.970;2023-05-23T17:43:40;101499.13;;;12.31;80.97
39823;BME280;25499;53.958;10.970;2023-05-23T17:46:08;101512.22;;;12.42;81.84
39823;BME280;25499;53.958;10.970;2023-05-23T17:48:35;101507.00;;;12.47;81.59
39823;BME280;25499;53.958;10.970;2023-05-23T17:51:02;101504.41;;;12.42;80.48
39823;BME280;25499;53.958;10.970;2023-05-23T17:53:29;101500.91;;;12.42;80.05
39823;BME280;25499;53.958;10.970;2023-05-23T17:55:55;101487.84;;;12.40;79.61
39823;BME280;25499;53.958;10.970;2023-05-23T17:58:22;101492.19;;;12.37;78.52
39823;BME280;25499;53.958;10.970;2023-05-23T18:00:49;101485.22;;;12.29;78.59